Time;durP1;ratioP1;P1;durP2;ratioP2;P2;SDS_P1;SDS_P2;PMS_P1;PMS_P2;Temp;Humidity;BMP_temperature;BMP_pressure;BME280_temperature;BME280_humidity;BME280_pressure;Samples;Min_cycle;Max_cycle;Signal;HPM_P1;HPM_P2
2024/01/27 00:00:10;;;;;;;21.67;2.90;;;;;;;4.41;100.00;102726.94;4956694;28;20046;-72
2024/01/27 00:02:37;;;;;;;24.92;3.90;;;;;;;4.39;100.00;102721.78;4939038;28;20586;-71
2024/01/27 00:05:03;;;;;;;22.52;3.42;;;;;;;4.40;100.00;102734.03;4943054;28;20039;-71
2024/01/27 00:07:29;;;;;;;18.55;3.15;;;;;;;4.40;100.00;102726.09;4937942;28;20954;-71
2024/01/27 00:09:55;;;;;;;20.60;2.17;;;;;;;4.44;100.00;102724.72;4942241;28;20496;-72
2024/01/27 00:12:21;;;;;;;28.13;3.00;;;;;;;4.46;100.00;102727.19;4949587;28;20039;-72
2024/01/27 00:14:47;;;;;;;24.90;3.00;;;;;;;4.45;100.00;102730.88;4939388;28;20505;-73
2024/01/27 00:17:13;;;;;;;24.27;3.40;;;;;;;4.42;100.00;102726.75;4931622;28;20051;-73
2024/01/27 00:19:38;;;;;;;29.30;3.33;;;;;;;4.41;100.00;102729.59;4940595;28;20139;-72
2024/01/27 00:22:04;;;;;;;26.88;3.40;;;;;;;4.40;100.00;102731.41;4934116;28;20067;-73
2024/01/27 00:24:30;;;;;;;18.00;3.08;;;;;;;4.41;100.00;102726.94;4936560;28;20401;-73
2024/01/27 00:26:55;;;;;;;17.23;2.97;;;;;;;4.39;100.00;102721.78;4938629;29;20035;-73
2024/01/27 00:29:21;;;;;;;17.88;3.22;;;;;;;4.37;100.00;102723.81;4919825;28;20043;-73
2024/01/27 00:31:47;;;;;;;15.18;2.60;;;;;;;4.39;100.00;102729.75;4946743;28;20113;-73
2024/01/27 00:34:12;;;;;;;13.77;2.25;;;;;;;4.38;100.00;102720.97;4942449;28;20047;-72
2024/01/27 00:36:38;;;;;;;23.98;2.53;;;;;;;4.35;100.00;102733.78;4933512;28;20047;-74
2024/01/27 00:39:04;;;;;;;21.50;2.65;;;;;;;4.34;100.00;102734.78;4937080;28;20063;-74
2024/01/27 00:41:29;;;;;;;13.75;2.40;;;;;;;4.34;100.00;102740.09;4926733;28;20040;-73
2024/01/27 00:43:55;;;;;;;21.42;3.00;;;;;;;4.32;100.00;102737.59;4925485;29;20031;-73
2024/01/27 00:46:21;;;;;;;20.33;3.20;;;;;;;4.31;100.00;102732.47;4937806;28;20318;-74
2024/01/27 00:48:47;;;;;;;19.58;2.70;;;;;;;4.33;100.00;102736.59;4941316;28;20296;-74
2024/01/27 00:51:13;;;;;;;24.80;3.03;;;;;;;4.36;100.00;102740.72;4942713;28;20047;-74
2024/01/27 00:53:41;;;;;;;28.67;3.30;;;;;;;4.39;100.00;102745.66;4942135;28;20035;-73
2024/01/27 00:56:06;;;;;;;21.77;3.78;;;;;;;4.42;100.00;102747.97;4942677;28;20375;-73
2024/01/27 00:58:32;;;;;;;23.63;3.58;;;;;;;4.41;100.00;102749.00;4925995;28;20053;-72
2024/01/27 01:00:58;;;;;;;22.65;2.30;;;;;;;4.43;100.00;102748.81;4926872;29;20049;-70
2024/01/27 01:03:24;;;;;;;25.17;3.83;;;;;;;4.43;100.00;102765.53;4934171;28;20035;-70
2024/01/27 01:05:50;;;;;;;19.58;2.75;;;;;;;4.45;100.00;102766.19;4943635;28;20038;-71
2024/01/27 01:08:15;;;;;;;20.55;2.75;;;;;;;4.49;100.00;102764.81;4940166;28;20058;-72
2024/01/27 01:10:41;;;;;;;21.15;2.78;;;;;;;4.50;100.00;102771.78;4940373;28;20605;-71
2024/01/27 01:13:07;;;;;;;20.73;2.65;;;;;;;4.51;100.00;102781.38;4936237;28;20414;-70
2024/01/27 01:15:32;;;;;;;20.27;2.63;;;;;;;4.51;100.00;102773.41;4931573;28;20059;-70
2024/01/27 01:17:58;;;;;;;27.45;3.13;;;;;;;4.53;100.00;102774.06;4935724;28;21382;-71
2024/01/27 01:20:26;;;;;;;20.98;3.17;;;;;;;4.55;100.00;102771.25;4932320;28;20042;-69
2024/01/27 01:22:51;;;;;;;19.15;2.30;;;;;;;4.56;100.00;102771.06;4920041;29;20771;-71
2024/01/27 01:25:17;;;;;;;19.38;3.00;;;;;;;4.59;100.00;102783.13;4938110;28;20485;-72
2024/01/27 01:27:43;;;;;;;29.27;3.65;;;;;;;4.61;100.00;102792.59;4940357;29;20126;-71
2024/01/27 01:30:09;;;;;;;25.55;3.25;;;;;;;4.62;100.00;102788.94;4934658;28;20568;-72
2024/01/27 01:32:35;;;;;;;19.58;2.05;;;;;;;4.65;100.00;102791.19;4935641;28;20048;-71
2024/01/27 01:35:01;;;;;;;19.55;2.80;;;;;;;4.64;100.00;102788.72;4943651;28;20390;-71
2024/01/27 01:37:27;;;;;;;22.55;3.42;;;;;;;4.65;100.00;102780.59;4925486;28;20032;-71
2024/01/27 01:39:52;;;;;;;20.75;2.88;;;;;;;4.65;100.00;102801.81;4917973;29;20062;-72
2024/01/27 01:42:20;;;;;;;20.10;3.45;;;;;;;4.64;100.00;102800.19;4931494;28;20038;-71
2024/01/27 01:44:46;;;;;;;26.45;3.38;;;;;;;4.64;100.00;102810.78;4930102;28;20043;-72
2024/01/27 01:47:12;;;;;;;20.90;2.95;;;;;;;4.63;100.00;102814.44;4933009;28;20441;-70
2024/01/27 01:49:38;;;;;;;;;;;;;;;4.66;100.00;102823.88;4936584;28;20488;-72
2024/01/27 01:52:04;;;;;;;20.25;2.50;;;;;;;4.65;100.00;102827.53;4938269;28;19918;-72
2024/01/27 01:54:31;;;;;;;20.05;2.80;;;;;;;4.62;100.00;102834.03;4918239;28;20042;-71
2024/01/27 01:56:59;;;;;;;25.65;3.72;;;;;;;4.64;100.00;102837.34;4935627;28;20047;-71
2024/01/27 01:59:24;;;;;;;25.13;4.32;;;;;;;4.65;100.00;102843.47;4922444;28;20043;-73
2024/01/27 02:01:50;;;;;;;16.15;2.25;;;;;;;4.64;100.00;102844.47;4937578;28;20784;-71
2024/01/27 02:04:16;;;;;;;26.60;3.15;;;;;;;4.61;100.00;102837.69;4940025;28;20137;-71
2024/01/27 02:06:41;;;;;;;23.77;3.05;;;;;;;4.60;100.00;102841.34;4935603;28;20032;-72
2024/01/27 02:09:07;;;;;;;21.92;2.97;;;;;;;4.60;100.00;102841.34;4938166;28;20473;-71
2024/01/27 02:11:33;;;;;;;19.88;2.67;;;;;;;4.58;100.00;102846.00;4922711;28;20050;-71
2024/01/27 02:13:59;;;;;;;21.38;3.03;;;;;;;4.58;100.00;102851.31;4938675;28;20505;-72
2024/01/27 02:16:24;;;;;;;16.58;2.67;;;;;;;4.55;100.00;102849.03;4943081;28;20062;-71
2024/01/27 02:18:50;;;;;;;20.38;2.63;;;;;;;4.55;100.00;102851.69;4924945;29;20035;-71
2024/01/27 02:21:16;;;;;;;22.27;2.90;;;;;;;4.57;100.00;102854.97;4935295;28;20079;-70
2024/01/27 02:23:41;;;;;;;17.10;3.50;;;;;;;4.57;100.00;102872.72;4938135;28;20038;-71
2024/01/27 02:26:07;;;;;;;22.50;2.95;;;;;;;4.59;100.00;102870.72;4943949;28;20109;-71
2024/01/27 02:28:33;;;;;;;17.90;3.30;;;;;;;4.55;100.00;102870.25;4940185;28;20736;-71
2024/01/27 02:31:02;;;;;;;18.50;2.03;;;;;;;4.56;100.00;102863.13;4938701;28;20044;-71
2024/01/27 02:33:29;;;;;;;14.80;2.55;;;;;;;4.56;100.00;102871.91;4919448;28;20118;-71
2024/01/27 02:35:54;;;;;;;24.50;3.15;;;;;;;4.60;100.00;102880.31;4942762;28;20559;-71
2024/01/27 02:38:20;;;;;;;18.75;2.55;;;;;;;4.62;100.00;102881.81;4916587;28;20047;-71
2024/01/27 02:40:45;;;;;;;30.80;3.55;;;;;;;4.61;100.00;102880.16;4930372;28;20553;-71
2024/01/27 02:43:11;;;;;;;23.73;2.20;;;;;;;4.63;100.00;102879.97;4937012;28;20050;-71
2024/01/27 02:45:37;;;;;;;16.58;3.35;;;;;;;4.63;100.00;102864.88;4943042;28;20054;-73
2024/01/27 02:48:03;;;;;;;19.77;3.28;;;;;;;4.65;100.00;102881.44;4927779;29;20114;-71
2024/01/27 02:50:28;;;;;;;24.92;3.80;;;;;;;4.64;100.00;102887.75;4938600;28;20031;-71
2024/01/27 02:52:54;;;;;;;23.30;2.42;;;;;;;4.65;100.00;102880.63;4937741;28;20114;-72
2024/01/27 02:55:20;;;;;;;16.73;2.72;;;;;;;4.64;100.00;102882.44;4936074;28;20038;-72
2024/01/27 02:57:46;;;;;;;;;;;;;;;4.68;100.00;102895.38;4942682;28;20564;-71
2024/01/27 03:00:12;;;;;;;23.75;3.05;;;;;;;4.70;100.00;102893.38;4916967;29;19919;-72
2024/01/27 03:02:37;;;;;;;23.95;2.75;;;;;;;4.68;100.00;102895.38;4916280;28;20524;-72
2024/01/27 03:05:04;;;;;;;22.50;2.75;;;;;;;4.68;100.00;102896.22;4923886;29;20031;-71
2024/01/27 03:07:29;;;;;;;20.52;4.03;;;;;;;4.70;100.00;102898.69;4933250;28;20039;-71
2024/01/27 03:09:55;;;;;;;27.90;4.15;;;;;;;4.67;100.00;102889.22;4920378;29;20042;-71
2024/01/27 03:12:22;;;;;;;18.40;2.60;;;;;;;4.69;100.00;102899.69;4937452;28;20591;-71
2024/01/27 03:14:49;;;;;;;16.13;2.33;;;;;;;4.69;100.00;102923.56;4922487;28;20035;-72
2024/01/27 03:17:15;;;;;;;20.02;2.53;;;;;;;4.68;100.00;102917.44;4936835;28;20098;-70
2024/01/27 03:19:41;;;;;;;17.25;2.63;;;;;;;4.70;100.00;102914.59;4931235;28;20042;-71
2024/01/27 03:22:06;;;;;;;18.92;2.60;;;;;;;4.69;100.00;102911.13;4940043;28;20047;-71
2024/01/27 03:24:32;;;;;;;24.23;3.42;;;;;;;4.71;100.00;102910.94;4921214;28;20075;-72
2024/01/27 03:26:58;;;;;;;20.52;2.80;;;;;;;4.70;100.00;102914.59;4913560;29;20028;-72
2024/01/27 03:29:24;;;;;;;14.82;2.85;;;;;;;4.70;100.00;102917.25;4934112;28;20030;-71
2024/01/27 03:31:49;;;;;;;15.98;2.40;;;;;;;4.70;100.00;102923.38;4932661;29;20492;-72
2024/01/27 03:34:17;;;;;;;18.00;2.25;;;;;;;4.69;100.00;102907.66;4941616;28;20138;-72
2024/01/27 03:36:47;;;;;;;21.48;2.92;;;;;;;4.68;100.00;102921.94;4913253;28;20068;-71
2024/01/27 03:39:12;;;;;;;17.85;2.55;;;;;;;4.66;100.00;102930.88;4929883;28;20043;-71
2024/01/27 03:41:38;;;;;;;17.92;2.58;;;;;;;4.66;100.00;102927.38;4945743;28;20405;-73
2024/01/27 03:44:03;;;;;;;17.80;2.95;;;;;;;4.64;100.00;102930.22;4934900;28;20042;-71
2024/01/27 03:46:29;;;;;;;23.90;2.72;;;;;;;4.64;100.00;102929.41;4932531;28;20122;-72
2024/01/27 03:48:55;;;;;;;20.50;2.70;;;;;;;4.62;100.00;102929.59;4938964;28;20070;-71
2024/01/27 03:51:20;;;;;;;22.30;2.53;;;;;;;4.60;100.00;102930.75;4938914;28;20634;-72
2024/01/27 03:53:46;;;;;;;21.95;3.03;;;;;;;4.60;100.00;102931.56;4937446;28;20044;-72
2024/01/27 03:56:12;;;;;;;26.25;3.38;;;;;;;4.61;100.00;102932.41;4921497;29;20035;-73
2024/01/27 03:58:38;;;;;;;20.25;3.00;;;;;;;4.59;100.00;102935.22;4935390;28;20356;-72
2024/01/27 04:01:04;;;;;;;19.13;3.92;;;;;;;4.57;100.00;102937.25;4940472;28;20034;-73
2024/01/27 04:03:30;;;;;;;20.75;2.90;;;;;;;4.55;100.00;102949.03;4935483;28;20699;-71
2024/01/27 04:05:55;;;;;;;21.92;3.13;;;;;;;4.53;100.00;102954.50;4939627;28;20493;-72
2024/01/27 04:08:21;;;;;;;18.58;2.63;;;;;;;4.52;100.00;102960.81;4914694;29;20063;-71
2024/01/27 04:10:47;;;;;;;;;;;;;;;4.51;100.00;102950.38;4937125;28;20043;-71
2024/01/27 04:13:13;;;;;;;22.23;2.33;;;;;;;4.46;100.00;102961.50;4939945;28;20599;-72
2024/01/27 04:15:39;;;;;;;19.08;2.67;;;;;;;4.42;100.00;102954.91;4908696;28;20047;-72
2024/01/27 04:18:09;;;;;;;22.17;2.90;;;;;;;4.37;100.00;102966.03;4941724;28;20090;-72
2024/01/27 04:20:35;;;;;;;23.95;2.92;;;;;;;4.36;100.00;102956.44;4934495;28;20521;-70
2024/01/27 04:23:01;;;;;;;19.05;2.70;;;;;;;4.35;100.00;102962.75;4925791;29;20047;-72
2024/01/27 04:25:27;;;;;;;20.73;2.78;;;;;;;4.31;100.00;102957.94;4936104;28;20039;-73
2024/01/27 04:27:53;;;;;;;23.33;2.72;;;;;;;4.31;100.00;102963.25;4927630;29;20037;-71
2024/01/27 04:30:19;;;;;;;24.88;3.38;;;;;;;4.27;100.00;102961.97;4942400;28;20047;-72
2024/01/27 04:32:45;;;;;;;24.60;3.38;;;;;;;4.25;100.00;102967.44;4932113;28;20047;-73
2024/01/27 04:35:11;;;;;;;21.42;3.00;;;;;;;4.26;100.00;102970.91;4917368;29;20040;-71
2024/01/27 04:37:37;;;;;;;19.95;3.22;;;;;;;4.24;100.00;102963.13;4936852;28;20043;-72
2024/01/27 04:40:06;;;;;;;9.77;2.83;;;;;;;4.23;100.00;102977.38;4940515;28;20637;-71
2024/01/27 04:42:34;;;;;;;24.25;3.05;;;;;;;4.22;100.00;102974.91;4943584;28;20461;-71
2024/01/27 04:44:59;;;;;;;23.67;2.75;;;;;;;4.23;100.00;102989.81;4935855;29;20047;-71
2024/01/27 04:47:25;;;;;;;21.98;2.63;;;;;;;4.20;100.00;102987.50;4937255;28;20280;-71
2024/01/27 04:49:51;;;;;;;19.25;2.33;;;;;;;4.17;100.00;102988.69;4937634;28;20032;-71
2024/01/27 04:52:17;;;;;;;21.83;3.53;;;;;;;4.16;100.00;102986.22;4942712;28;20073;-72
2024/01/27 04:54:42;;;;;;;22.75;3.42;;;;;;;4.10;100.00;102991.19;4924681;28;20126;-71
2024/01/27 04:57:08;;;;;;;18.75;2.65;;;;;;;4.11;100.00;102984.88;4940326;28;20515;-71
2024/01/27 04:59:34;;;;;;;15.23;2.45;;;;;;;4.12;100.00;102985.72;4938190;28;20035;-71
2024/01/27 05:02:00;;;;;;;22.05;2.80;;;;;;;4.09;100.00;102984.25;4939115;28;20055;-72
2024/01/27 05:04:26;;;;;;;19.25;2.75;;;;;;;4.09;100.00;102981.59;4941422;28;20507;-72
2024/01/27 05:06:52;;;;;;;;;;;;;;;4.10;100.00;102980.59;4932742;28;20039;-72
2024/01/27 05:09:18;;;;;;;14.63;3.00;;;;;;;4.05;100.00;102972.31;4936684;28;20436;-71
2024/01/27 05:11:45;;;;;;;20.27;2.80;;;;;;;4.03;100.00;102976.97;4943410;28;20049;-71
2024/01/27 05:14:11;;;;;;;19.25;3.03;;;;;;;3.99;100.00;102988.91;4933253;28;20114;-71
2024/01/27 05:16:36;;;;;;;22.30;3.47;;;;;;;3.94;100.00;102985.97;4934220;28;20580;-72
2024/01/27 05:19:02;;;;;;;26.33;3.72;;;;;;;3.86;100.00;102985.97;4921368;29;20042;-71
2024/01/27 05:21:27;;;;;;;19.48;2.80;;;;;;;3.82;100.00;102984.66;4937983;28;20063;-71
2024/01/27 05:23:54;;;;;;;19.48;2.80;;;;;;;3.76;100.00;102996.75;4940638;28;20031;-71
2024/01/27 05:26:21;;;;;;;26.42;2.95;;;;;;;3.73;100.00;102991.81;4926910;29;20035;-73
2024/01/27 05:28:46;;;;;;;21.00;3.63;;;;;;;3.70;100.00;102986.00;4932049;28;20106;-70
2024/01/27 05:31:12;;;;;;;28.20;3.13;;;;;;;3.64;100.00;102987.50;4941559;28;20649;-72
2024/01/27 05:33:39;;;;;;;20.50;3.65;;;;;;;3.59;100.00;102997.81;4938150;28;20042;-71
2024/01/27 05:36:05;;;;;;;20.77;3.00;;;;;;;3.55;100.00;102997.31;4934468;28;20512;-71
2024/01/27 05:38:31;;;;;;;21.88;2.75;;;;;;;3.55;100.00;103004.44;4939716;28;20073;-71
2024/01/27 05:41:01;;;;;;;19.63;2.25;;;;;;;3.49;100.00;103008.56;4930052;29;20138;-72
2024/01/27 05:43:26;;;;;;;23.42;3.35;;;;;;;3.47;100.00;103015.88;4936699;28;20039;-70
2024/01/27 05:45:53;;;;;;;20.67;2.97;;;;;;;3.44;100.00;103008.22;4937338;28;20054;-71
2024/01/27 05:48:18;;;;;;;22.45;2.80;;;;;;;3.43;100.00;103017.19;4943645;28;20119;-71
2024/01/27 05:50:55;;;;;;;19.00;3.10;;;;;;;3.38;100.00;103038.03;4938745;28;20042;-71
2024/01/27 05:53:22;;;;;;;20.38;2.47;;;;;;;3.32;100.00;103029.91;4924762;29;20061;-70
2024/01/27 05:55:47;;;;;;;20.98;3.35;;;;;;;3.28;100.00;103026.78;4938180;28;20409;-72
2024/01/27 05:58:13;;;;;;;22.63;2.78;;;;;;;3.25;100.00;103032.41;4936874;28;20122;-71
2024/01/27 06:00:39;;;;;;;17.58;2.70;;;;;;;3.23;100.00;103039.69;4925992;28;20043;-72
2024/01/27 06:03:04;;;;;;;19.73;2.58;;;;;;;3.19;100.00;103036.56;4937958;28;20039;-70
2024/01/27 06:05:30;;;;;;;21.60;2.92;;;;;;;3.15;100.00;103029.94;4942730;28;20043;-71
2024/01/27 06:07:56;;;;;;;18.85;3.47;;;;;;;3.10;100.00;103034.88;4935909;28;20042;-69
2024/01/27 06:10:23;;;;;;;18.77;2.50;;;;;;;3.05;100.00;103037.22;4938821;28;20588;-71
2024/01/27 06:12:49;;;;;;;17.50;2.83;;;;;;;3.00;100.00;103045.63;4942574;28;20043;-71
2024/01/27 06:15:15;;;;;;;23.73;3.22;;;;;;;2.97;100.00;103045.13;4918672;29;20047;-71
2024/01/27 06:17:40;;;;;;;24.77;3.28;;;;;;;2.96;100.00;103051.41;4939173;28;20036;-71
2024/01/27 06:20:07;;;;;;;22.92;2.95;;;;;;;2.98;100.00;103066.16;4937949;28;20075;-71
2024/01/27 06:22:33;;;;;;;24.17;2.85;;;;;;;2.99;100.00;103056.38;4936744;28;20047;-71
2024/01/27 06:24:58;;;;;;;17.83;2.45;;;;;;;2.96;100.00;103065.47;4935048;28;20044;-71
2024/01/27 06:27:24;;;;;;;15.85;2.45;;;;;;;2.96;100.00;103070.75;4945654;28;20032;-71
2024/01/27 06:29:50;;;;;;;28.48;3.42;;;;;;;2.95;100.00;103057.69;4929780;28;20038;-73
2024/01/27 06:32:15;;;;;;;30.90;2.78;;;;;;;2.92;100.00;103065.97;4938505;28;20035;-70
2024/01/27 06:34:41;;;;;;;28.30;3.58;;;;;;;2.91;100.00;103069.59;4936871;28;20552;-71
2024/01/27 06:37:07;;;;;;;23.25;2.90;;;;;;;2.90;100.00;103063.47;4941241;28;20494;-71
2024/01/27 06:39:33;;;;;;;28.70;3.42;;;;;;;2.91;100.00;103075.72;4933043;28;20511;-71
2024/01/27 06:41:58;;;;;;;16.02;2.45;;;;;;;2.94;100.00;103075.41;4937788;28;20108;-71
2024/01/27 06:44:24;;;;;;;19.88;2.75;;;;;;;2.93;100.00;103084.34;4939094;28;20040;-71
2024/01/27 06:46:50;;;;;;;20.90;3.03;;;;;;;2.92;100.00;103081.84;4936173;28;20103;-71
2024/01/27 06:49:16;;;;;;;20.88;2.65;;;;;;;2.92;100.00;103087.97;4941195;28;20039;-71
2024/01/27 06:51:43;;;;;;;;;;;;;;;2.91;100.00;103096.91;4943160;28;20560;-71
2024/01/27 06:54:09;;;;;;;17.33;3.10;;;;;;;2.89;100.00;103090.94;4934375;28;19933;-71
2024/01/27 06:56:35;;;;;;;28.70;2.70;;;;;;;2.90;100.00;103099.69;4938547;28;20433;-71
2024/01/27 06:59:00;;;;;;;19.95;4.22;;;;;;;2.85;100.00;103105.50;4939416;28;20075;-71
2024/01/27 07:01:26;;;;;;;15.98;2.22;;;;;;;2.83;100.00;103099.50;4921665;29;20036;-73
2024/01/27 07:03:52;;;;;;;15.63;2.45;;;;;;;2.78;100.00;103107.13;4935343;28;20035;-70
2024/01/27 07:06:17;;;;;;;20.23;3.00;;;;;;;2.74;100.00;103109.25;4917427;29;20118;-71
2024/01/27 07:08:43;;;;;;;19.75;3.55;;;;;;;2.72;100.00;103107.75;4923921;28;20038;-72
2024/01/27 07:11:08;;;;;;;22.90;3.45;;;;;;;2.67;100.00;103116.16;4937780;28;20047;-72
2024/01/27 07:13:34;;;;;;;15.07;2.25;;;;;;;2.64;100.00;103121.78;4919361;29;20107;-72
2024/01/27 07:16:00;;;;;;;19.98;2.40;;;;;;;2.63;100.00;103113.97;4943542;28;20033;-71
2024/01/27 07:18:25;;;;;;;23.88;3.13;;;;;;;2.62;100.00;103126.38;4930371;28;20104;-73
2024/01/27 07:20:51;;;;;;;15.60;2.72;;;;;;;2.62;100.00;103117.63;4918632;28;20102;-72
2024/01/27 07:23:17;;;;;;;20.73;2.65;;;;;;;2.62;100.00;103114.97;4945759;28;20031;-71
2024/01/27 07:25:43;;;;;;;24.75;2.92;;;;;;;2.63;100.00;103116.63;4939663;28;20122;-70
2024/01/27 07:28:09;;;;;;;19.98;2.72;;;;;;;2.62;100.00;103122.91;4935042;28;20035;-71
2024/01/27 07:30:36;;;;;;;20.92;2.80;;;;;;;2.60;100.00;103125.72;4930229;28;20058;-72
2024/01/27 07:33:02;;;;;;;22.88;2.60;;;;;;;2.59;100.00;103124.06;4939375;28;20035;-72
2024/01/27 07:35:28;;;;;;;19.50;2.55;;;;;;;2.57;100.00;103141.91;4940136;28;20042;-71
2024/01/27 07:37:54;;;;;;;21.77;3.72;;;;;;;2.59;100.00;103142.59;4938994;28;20028;-71
2024/01/27 07:40:19;;;;;;;20.02;2.83;;;;;;;2.60;100.00;103151.34;4941204;28;20058;-70
2024/01/27 07:42:45;;;;;;;25.35;2.97;;;;;;;2.58;100.00;103154.16;4941672;28;20493;-71
2024/01/27 07:45:11;;;;;;;18.83;2.40;;;;;;;2.58;100.00;103159.44;4937544;28;20114;-71
2024/01/27 07:47:37;;;;;;;16.20;2.85;;;;;;;2.60;100.00;103164.56;4939342;28;20061;-71
2024/01/27 07:50:02;;;;;;;18.88;2.67;;;;;;;2.60;100.00;103164.56;4939264;28;20032;-71
2024/01/27 07:52:28;;;;;;;17.73;2.58;;;;;;;2.59;100.00;103161.09;4942022;28;20516;-71
2024/01/27 07:54:54;;;;;;;25.48;3.17;;;;;;;2.61;100.00;103160.94;4940328;28;20101;-70
2024/01/27 07:57:20;;;;;;;18.95;2.72;;;;;;;2.60;100.00;103157.47;4932668;28;20038;-72
2024/01/27 07:59:46;;;;;;;18.92;2.95;;;;;;;2.63;100.00;103151.84;4925152;28;20039;-71
2024/01/27 08:02:12;;;;;;;20.95;2.88;;;;;;;2.64;100.00;103142.94;4912505;29;20158;-71
2024/01/27 08:04:38;;;;;;;18.40;3.28;;;;;;;2.68;100.00;103146.09;4945724;28;20094;-70
2024/01/27 08:07:09;;;;;;;19.10;2.88;;;;;;;2.68;100.00;103144.28;4947233;28;20093;-71
2024/01/27 08:09:37;;;;;;;8.10;2.15;;;;;;;2.69;100.00;103151.22;4938661;28;20035;-72
2024/01/27 08:12:03;;;;;;;13.93;1.98;;;;;;;2.71;100.00;103159.03;4937913;28;20190;-71
2024/01/27 08:14:29;;;;;;;20.70;3.00;;;;;;;2.74;100.00;103154.22;4937303;28;20035;-71
2024/01/27 08:16:58;;;;;;;16.02;2.85;;;;;;;2.75;100.00;103160.34;4938569;28;20695;-71
2024/01/27 08:19:24;;;;;;;18.38;2.80;;;;;;;2.79;100.00;103169.63;4935357;28;20043;-71
2024/01/27 08:21:49;;;;;;;12.48;2.45;;;;;;;2.83;100.00;103168.31;4933578;28;20054;-71
2024/01/27 08:24:15;;;;;;;14.02;2.00;;;;;;;2.88;100.00;103170.50;4926555;29;20486;-71
2024/01/27 08:26:42;;;;;;;15.13;2.00;;;;;;;2.90;100.00;103158.75;4938547;28;20036;-71
2024/01/27 08:29:10;;;;;;;15.40;2.42;;;;;;;2.95;100.00;103171.50;4943852;28;20054;-71
2024/01/27 08:31:39;;;;;;;17.05;2.28;;;;;;;3.00;100.00;103170.06;4945178;28;20037;-71
2024/01/27 08:34:05;;;;;;;13.55;2.97;;;;;;;3.06;100.00;103167.75;4937887;28;20050;-71
2024/01/27 08:36:32;;;;;;;18.10;2.85;;;;;;;3.09;100.00;103159.47;4940642;28;20039;-70
2024/01/27 08:38:57;;;;;;;17.48;2.70;;;;;;;3.12;100.00;103167.94;4939901;28;20049;-71
2024/01/27 08:41:23;;;;;;;13.07;2.40;;;;;;;3.18;100.00;103171.75;4941070;28;20034;-72
2024/01/27 08:43:49;;;;;;;;;;;;;;;3.22;100.00;103173.09;4940038;28;20150;-71
2024/01/27 08:46:17;;;;;;;13.05;2.17;;;;;;;3.24;100.00;103176.41;4936872;28;20104;-74
2024/01/27 08:48:43;;;;;;;14.57;2.35;;;;;;;3.29;100.00;103179.41;4937654;28;20044;-71
2024/01/27 08:51:10;;;;;;;18.20;2.60;;;;;;;3.34;100.00;103182.41;4930304;28;20046;-71
2024/01/27 08:53:35;;;;;;;15.80;2.60;;;;;;;3.39;100.00;103188.06;4940039;28;20770;-71
2024/01/27 08:56:01;;;;;;;19.60;3.00;;;;;;;3.42;100.00;103189.53;4931311;28;20035;-72
2024/01/27 08:58:27;;;;;;;21.95;2.95;;;;;;;3.47;100.00;103193.38;4922881;29;20074;-72
2024/01/27 09:00:53;;;;;;;11.52;2.20;;;;;;;3.50;100.00;103203.63;4934516;28;20031;-71
2024/01/27 09:03:20;;;;;;;14.23;2.20;;;;;;;3.56;100.00;103202.16;4940054;28;20086;-70
2024/01/27 09:05:46;;;;;;;19.88;2.65;;;;;;;3.57;100.00;103195.84;4922039;29;20130;-71
2024/01/27 09:08:12;;;;;;;15.05;2.35;;;;;;;3.59;100.00;103193.03;4938431;28;20038;-71
2024/01/27 09:10:38;;;;;;;15.88;2.53;;;;;;;3.62;100.00;103200.66;4940961;28;20112;-71
2024/01/27 09:13:04;;;;;;;13.60;3.40;;;;;;;3.64;100.00;103198.69;4938511;28;20046;-72
2024/01/27 09:15:30;;;;;;;15.77;2.58;;;;;;;3.69;100.00;103201.69;4939923;28;20122;-72
2024/01/27 09:17:56;;;;;;;18.13;3.13;;;;;;;3.72;100.00;103206.63;4943644;28;20046;-71
2024/01/27 09:20:23;;;;;;;15.82;3.05;;;;;;;3.76;100.00;103207.97;4938087;28;20035;-72
2024/01/27 09:22:50;;;;;;;16.60;2.67;;;;;;;3.79;100.00;103210.28;4944805;28;20180;-72
2024/01/27 09:25:16;;;;;;;16.75;3.00;;;;;;;3.82;100.00;103212.63;4938247;28;20039;-72
2024/01/27 09:27:41;;;;;;;11.93;2.15;;;;;;;3.86;100.00;103205.97;4934599;28;20449;-72
2024/01/27 09:30:08;;;;;;;14.65;2.25;;;;;;;3.93;100.00;103209.66;4943744;28;21486;-72
2024/01/27 09:32:33;;;;;;;15.00;2.10;;;;;;;4.00;100.00;103215.97;4936735;28;20040;-72
2024/01/27 09:34:59;;;;;;;14.65;2.70;;;;;;;4.02;100.00;103192.75;4921050;28;20106;-71
2024/01/27 09:37:25;;;;;;;14.00;2.42;;;;;;;4.05;100.00;103203.00;4912385;29;20042;-72
2024/01/27 09:39:50;;;;;;;16.27;2.47;;;;;;;4.14;100.00;103203.84;4921022;28;20143;-72
2024/01/27 09:42:20;;;;;;;16.52;2.88;;;;;;;4.18;100.00;103194.56;4944469;28;20038;-71
2024/01/27 09:44:49;;;;;;;11.63;2.15;;;;;;;4.25;100.00;103203.50;4943559;28;20043;-72
2024/01/27 09:47:17;;;;;;;17.17;2.72;;;;;;;4.29;100.00;103204.00;4943493;28;20027;-72
2024/01/27 09:49:43;;;;;;;14.95;2.47;;;;;;;4.31;100.00;103207.31;4938493;28;20061;-72
2024/01/27 09:52:09;;;;;;;15.25;2.65;;;;;;;4.35;100.00;103208.66;4940828;28;20040;-71
2024/01/27 09:54:36;;;;;;;11.93;2.25;;;;;;;4.40;100.00;103206.28;4938435;28;20043;-73
2024/01/27 09:57:02;;;;;;;18.73;2.80;;;;;;;4.45;100.00;103214.59;4939367;28;20186;-72
2024/01/27 09:59:29;;;;;;;18.70;2.85;;;;;;;4.51;100.00;103208.59;4936570;28;20493;-71
2024/01/27 10:01:57;;;;;;;16.75;2.75;;;;;;;4.55;100.00;103214.41;4944794;28;20168;-71
2024/01/27 10:04:25;;;;;;;14.75;3.10;;;;;;;4.56;100.00;103221.38;4940005;28;20057;-71
2024/01/27 10:06:50;;;;;;;11.90;2.47;;;;;;;4.60;100.00;103204.94;4941303;28;20035;-71
2024/01/27 10:09:17;;;;;;;15.45;2.83;;;;;;;4.63;100.00;103215.22;4940961;28;20046;-71
2024/01/27 10:11:45;;;;;;;;;;;;;;;4.68;100.00;103224.50;4938564;28;20067;-71
2024/01/27 10:14:11;;;;;;;13.68;2.10;;;;;;;4.72;100.00;103216.03;4933654;28;19962;-72
2024/01/27 10:16:44;;;;;;;16.08;2.50;;;;;;;4.75;100.00;103230.81;4939188;28;20039;-73
2024/01/27 10:19:18;;;;;;;15.82;2.35;;;;;;;4.79;100.00;103214.34;4927894;28;20405;-72
2024/01/27 10:21:44;;;;;;;13.57;3.20;;;;;;;4.87;100.00;103219.63;4933300;28;20040;-73
2024/01/27 10:24:10;;;;;;;12.27;3.45;;;;;;;4.90;100.00;103223.78;4937898;28;20035;-71
2024/01/27 10:26:36;;;;;;;20.00;3.10;;;;;;;4.96;100.00;103227.59;4943090;28;20054;-71
2024/01/27 10:29:02;;;;;;;11.13;2.90;;;;;;;5.00;100.00;103219.09;4935913;28;20040;-71
2024/01/27 10:31:28;;;;;;;12.82;2.88;;;;;;;5.02;100.00;103222.41;4939918;28;20164;-74
2024/01/27 10:33:59;;;;;;;14.30;2.70;;;;;;;5.11;100.00;103224.03;4935197;28;20083;-74
2024/01/27 10:36:26;;;;;;;20.65;2.97;;;;;;;5.16;100.00;103212.91;4938093;28;20611;-71
2024/01/27 10:38:52;;;;;;;10.50;2.10;;;;;;;5.21;100.00;103226.47;4933026;28;20034;-75
2024/01/27 10:41:24;;;;;;;20.17;2.80;;;;;;;5.24;100.00;103230.63;4911794;29;20129;-72
2024/01/27 10:43:54;;;;;;;10.10;2.75;;;;;;;5.29;100.00;103230.94;4941924;28;20035;-72
2024/01/27 10:46:21;;;;;;;10.95;2.33;;;;;;;5.34;100.00;103225.91;4913148;29;20039;-72
2024/01/27 10:48:52;;;;;;;16.60;2.67;;;;;;;5.33;100.00;103233.06;4939793;28;20036;-73
2024/01/27 10:51:50;;;;;;;14.18;2.75;;;;;;;5.32;100.00;103228.75;4943794;28;20045;-74
2024/01/27 10:54:26;;;;;;;10.02;2.38;;;;;;;5.37;100.00;103230.88;4919556;28;20043;-73
2024/01/27 10:56:55;;;;;;;17.30;2.92;;;;;;;5.39;100.00;103215.59;4941846;28;20037;-73
2024/01/27 10:59:22;;;;;;;16.15;2.25;;;;;;;5.42;100.00;103223.22;4934391;28;20043;-73
2024/01/27 11:01:52;;;;;;;;;;;;;;;5.47;100.00;103228.81;4941576;28;20502;-73
2024/01/27 11:04:23;;;;;;;9.77;2.15;;;;;;;5.50;100.00;103241.78;4934598;28;20440;-75
2024/01/27 11:06:49;;;;;;;9.88;2.30;;;;;;;5.57;100.00;103241.91;4951370;28;20089;-75
2024/01/27 11:09:15;;;;;;;11.60;2.15;;;;;;;5.64;100.00;103238.38;4920914;28;20047;-75
2024/01/27 11:11:45;;;;;;;17.17;2.80;;;;;;;5.64;100.00;103225.09;4939684;28;20038;-76
2024/01/27 11:14:11;;;;;;;16.80;4.32;;;;;;;5.63;100.00;103226.09;4933687;28;20559;-75